sensor_id;sensor_type;location;lat;lon;timestamp;temperature;humidity
13802;DHT22;6972;51.518;6.918;2023-02-12T00:00:06;8.30;99.90
13802;DHT22;6972;51.518;6.918;2023-02-12T00:02:33;8.30;99.90
13802;DHT22;6972;51.518;6.918;2023-02-12T00:09:51;8.30;99.90
13802;DHT22;6972;51.518;6.918;2023-02-12T00:29:25;8.30;99.90
13802;DHT22;6972;51.518;6.918;2023-02-12T00:39:09;8.20;99.90
13802;DHT22;6972;51.518;6.918;2023-02-12T00:46:27;8.40;99.90
13802;DHT22;6972;51.518;6.918;2023-02-12T00:48:53;8.30;99.90
13802;DHT22;6972;51.518;6.918;2023-02-12T01:01:03;8.20;99.90
13802;DHT22;6972;51.518;6.918;2023-02-12T01:08:21;8.10;99.90
13802;DHT22;6972;51.518;6.918;2023-02-12T01:11:00;8.20;99.90
13802;DHT22;6972;51.518;6.918;2023-02-12T01:13:27;8.30;99.90
13802;DHT22;6972;51.518;6.918;2023-02-12T01:16:21;8.20;99.90
13802;DHT22;6972;51.518;6.918;2023-02-12T01:18:48;8.30;99.90
13802;DHT22;6972;51.518;6.918;2023-02-12T01:21:20;8.20;99.90
13802;DHT22;6972;51.518;6.918;2023-02-12T01:23:47;8.30;99.90
13802;DHT22;6972;51.518;6.918;2023-02-12T01:26:14;8.20;99.90
13802;DHT22;6972;51.518;6.918;2023-02-12T01:28:41;8.20;99.90
13802;DHT22;6972;51.518;6.918;2023-02-12T01:31:12;8.30;99.90
13802;DHT22;6972;51.518;6.918;2023-02-12T01:36:04;8.20;99.90
13802;DHT22;6972;51.518;6.918;2023-02-12T01:38:30;8.20;99.90
13802;DHT22;6972;51.518;6.918;2023-02-12T01:41:07;8.20;99.90
13802;DHT22;6972;51.518;6.918;2023-02-12T01:43:34;8.30;99.90
13802;DHT22;6972;51.518;6.918;2023-02-12T01:46:01;8.20;99.90
13802;DHT22;6972;51.518;6.918;2023-02-12T01:48:29;8.20;99.90
13802;DHT22;6972;51.518;6.918;2023-02-12T01:50:56;8.20;99.90
13802;DHT22;6972;51.518;6.918;2023-02-12T01:53:27;8.20;99.90
13802;DHT22;6972;51.518;6.918;2023-02-12T01:55:56;8.10;99.90
13802;DHT22;6972;51.518;6.918;2023-02-12T01:58:23;8.20;99.90
13802;DHT22;6972;51.518;6.918;2023-02-12T02:03:16;8.20;99.90
13802;DHT22;6972;51.518;6.918;2023-02-12T02:13:09;8.20;99.90
13802;DHT22;6972;51.518;6.918;2023-02-12T02:15:57;8.20;99.90
13802;DHT22;6972;51.518;6.918;2023-02-12T02:18:37;8.20;99.90
13802;DHT22;6972;51.518;6.918;2023-02-12T02:34:46;8.30;99.90
13802;DHT22;6972;51.518;6.918;2023-02-12T02:37:26;8.40;99.90
13802;DHT22;6972;51.518;6.918;2023-02-12T02:40:15;8.30;99.90
13802;DHT22;6972;51.518;6.918;2023-02-12T02:45:27;8.30;99.90
13802;DHT22;6972;51.518;6.918;2023-02-12T02:48:05;8.30;99.90
13802;DHT22;6972;51.518;6.918;2023-02-12T02:50:34;8.30;99.90
13802;DHT22;6972;51.518;6.918;2023-02-12T02:53:05;8.30;99.90
13802;DHT22;6972;51.518;6.918;2023-02-12T02:55:38;8.30;99.90
13802;DHT22;6972;51.518;6.918;2023-02-12T02:58:09;8.40;99.90
13802;DHT22;6972;51.518;6.918;2023-02-12T03:00:37;8.30;99.90
13802;DHT22;6972;51.518;6.918;2023-02-12T03:03:13;8.30;99.90
13802;DHT22;6972;51.518;6.918;2023-02-12T03:05:43;8.30;99.90
13802;DHT22;6972;51.518;6.918;2023-02-12T03:08:16;8.30;99.90
13802;DHT22;6972;51.518;6.918;2023-02-12T03:10:59;8.30;99.90
13802;DHT22;6972;51.518;6.918;2023-02-12T03:13:33;8.20;99.90
13802;DHT22;6972;51.518;6.918;2023-02-12T03:16:14;8.20;99.90
13802;DHT22;6972;51.518;6.918;2023-02-12T03:18:53;8.60;99.90
13802;DHT22;6972;51.518;6.918;2023-02-12T03:21:26;8.20;99.90
13802;DHT22;6972;51.518;6.918;2023-02-12T03:26:27;8.30;99.90
13802;DHT22;6972;51.518;6.918;2023-02-12T03:31:33;8.20;99.90
13802;DHT22;6972;51.518;6.918;2023-02-12T03:39:54;8.30;99.90
13802;DHT22;6972;51.518;6.918;2023-02-12T03:45:34;8.20;99.90
13802;DHT22;6972;51.518;6.918;2023-02-12T03:48:19;8.20;99.90
13802;DHT22;6972;51.518;6.918;2023-02-12T03:51:03;8.20;99.90
13802;DHT22;6972;51.518;6.918;2023-02-12T03:53:30;8.20;99.90
13802;DHT22;6972;51.518;6.918;2023-02-12T03:56:07;8.20;99.90
13802;DHT22;6972;51.518;6.918;2023-02-12T04:01:01;8.30;99.90
13802;DHT22;6972;51.518;6.918;2023-02-12T04:03:29;8.20;99.90
13802;DHT22;6972;51.518;6.918;2023-02-12T04:08:20;8.30;99.90
13802;DHT22;6972;51.518;6.918;2023-02-12T04:34:34;8.20;99.90
13802;DHT22;6972;51.518;6.918;2023-02-12T04:37:09;8.10;99.90
13802;DHT22;6972;51.518;6.918;2023-02-12T04:39:39;8.20;99.90
13802;DHT22;6972;51.518;6.918;2023-02-12T04:44:33;8.10;99.90
13802;DHT22;6972;51.518;6.918;2023-02-12T04:47:00;8.20;99.90
13802;DHT22;6972;51.518;6.918;2023-02-12T04:49:26;8.20;99.90
13802;DHT22;6972;51.518;6.918;2023-02-12T04:51:52;8.20;99.90
13802;DHT22;6972;51.518;6.918;2023-02-12T04:54:19;8.20;99.90
13802;DHT22;6972;51.518;6.918;2023-02-12T05:01:38;8.20;99.90
13802;DHT22;6972;51.518;6.918;2023-02-12T05:04:05;8.20;99.90
13802;DHT22;6972;51.518;6.918;2023-02-12T05:06:34;8.20;99.90
13802;DHT22;6972;51.518;6.918;2023-02-12T05:13:52;8.20;99.90
13802;DHT22;6972;51.518;6.918;2023-02-12T05:16:19;8.30;99.90
13802;DHT22;6972;51.518;6.918;2023-02-12T05:18:45;8.30;99.90
13802;DHT22;6972;51.518;6.918;2023-02-12T05:23:39;8.20;99.90
13802;DHT22;6972;51.518;6.918;2023-02-12T05:26:10;8.20;99.90
13802;DHT22;6972;51.518;6.918;2023-02-12T05:28:36;8.40;99.90
13802;DHT22;6972;51.518;6.918;2023-02-12T05:31:04;8.20;99.90
13802;DHT22;6972;51.518;6.918;2023-02-12T05:36:03;8.30;99.90
13802;DHT22;6972;51.518;6.918;2023-02-12T05:41:03;8.20;99.90
13802;DHT22;6972;51.518;6.918;2023-02-12T05:43:30;8.40;99.90
13802;DHT22;6972;51.518;6.918;2023-02-12T05:45:58;8.20;99.90
13802;DHT22;6972;51.518;6.918;2023-02-12T05:50:51;8.30;99.90
13802;DHT22;6972;51.518;6.918;2023-02-12T05:53:17;8.10;99.90
13802;DHT22;6972;51.518;6.918;2023-02-12T06:15:10;8.10;99.90
13802;DHT22;6972;51.518;6.918;2023-02-12T06:17:36;8.10;99.90
13802;DHT22;6972;51.518;6.918;2023-02-12T06:20:01;8.10;99.90
13802;DHT22;6972;51.518;6.918;2023-02-12T06:22:27;8.10;99.90
13802;DHT22;6972;51.518;6.918;2023-02-12T06:34:39;8.20;99.90
13802;DHT22;6972;51.518;6.918;2023-02-12T06:37:05;8.10;99.90
13802;DHT22;6972;51.518;6.918;2023-02-12T06:39:30;8.10;99.90
13802;DHT22;6972;51.518;6.918;2023-02-12T06:44:22;8.10;99.90
13802;DHT22;6972;51.518;6.918;2023-02-12T06:51:41;8.20;99.90
13802;DHT22;6972;51.518;6.918;2023-02-12T06:54:12;8.10;99.90
13802;DHT22;6972;51.518;6.918;2023-02-12T06:59:04;8.20;99.90
13802;DHT22;6972;51.518;6.918;2023-02-12T07:01:30;8.20;99.90
13802;DHT22;6972;51.518;6.918;2023-02-12T07:03:57;8.10;99.90
13802;DHT22;6972;51.518;6.918;2023-02-12T07:06:24;8.70;99.90
13802;DHT22;6972;51.518;6.918;2023-02-12T07:08:51;8.00;99.90
13802;DHT22;6972;51.518;6.918;2023-02-12T07:11:17;8.10;99.90
13802;DHT22;6972;51.518;6.918;2023-02-12T07:13:43;8.00;99.90
13802;DHT22;6972;51.518;6.918;2023-02-12T07:16:12;8.20;99.90
13802;DHT22;6972;51.518;6.918;2023-02-12T07:21:05;8.20;99.90
13802;DHT22;6972;51.518;6.918;2023-02-12T07:23:32;8.20;99.90
13802;DHT22;6972;51.518;6.918;2023-02-12T07:26:04;8.20;99.90
13802;DHT22;6972;51.518;6.918;2023-02-12T07:28:31;8.30;99.90
13802;DHT22;6972;51.518;6.918;2023-02-12T07:30:58;8.20;99.90
13802;DHT22;6972;51.518;6.918;2023-02-12T07:40:42;8.30;99.90
13802;DHT22;6972;51.518;6.918;2023-02-12T07:43:08;8.30;99.90
13802;DHT22;6972;51.518;6.918;2023-02-12T07:57:44;8.30;99.90
13802;DHT22;6972;51.518;6.918;2023-02-12T08:00:10;8.40;99.90
13802;DHT22;6972;51.518;6.918;2023-02-12T08:07:28;8.40;99.90
13802;DHT22;6972;51.518;6.918;2023-02-12T08:17:13;8.70;99.90
13802;DHT22;6972;51.518;6.918;2023-02-12T08:22:04;8.70;99.90
13802;DHT22;6972;51.518;6.918;2023-02-12T08:24:31;8.70;99.90
13802;DHT22;6972;51.518;6.918;2023-02-12T08:29:25;8.70;99.90
13802;DHT22;6972;51.518;6.918;2023-02-12T08:31:59;8.80;99.90
13802;DHT22;6972;51.518;6.918;2023-02-12T08:34:34;8.90;99.90
13802;DHT22;6972;51.518;6.918;2023-02-12T08:39:27;8.90;99.90
13802;DHT22;6972;51.518;6.918;2023-02-12T08:41:55;8.90;99.90
13802;DHT22;6972;51.518;6.918;2023-02-12T08:46:49;9.00;99.90
13802;DHT22;6972;51.518;6.918;2023-02-12T08:49:17;9.00;99.90
13802;DHT22;6972;51.518;6.918;2023-02-12T08:51:46;9.20;99.90
13802;DHT22;6972;51.518;6.918;2023-02-12T08:54:14;9.40;99.90
13802;DHT22;6972;51.518;6.918;2023-02-12T08:56:41;9.30;99.90
13802;DHT22;6972;51.518;6.918;2023-02-12T08:59:08;9.20;99.90
13802;DHT22;6972;51.518;6.918;2023-02-12T09:01:36;9.30;99.90
13802;DHT22;6972;51.518;6.918;2023-02-12T09:04:16;9.20;99.90
13802;DHT22;6972;51.518;6.918;2023-02-12T09:06:43;9.20;99.90
13802;DHT22;6972;51.518;6.918;2023-02-12T09:09:09;9.30;99.90
13802;DHT22;6972;51.518;6.918;2023-02-12T09:14:04;9.30;99.90
13802;DHT22;6972;51.518;6.918;2023-02-12T09:16:31;9.40;99.90
13802;DHT22;6972;51.518;6.918;2023-02-12T09:18:57;9.50;99.90
13802;DHT22;6972;51.518;6.918;2023-02-12T09:21:23;9.50;99.90
13802;DHT22;6972;51.518;6.918;2023-02-12T09:26:17;9.60;99.90
13802;DHT22;6972;51.518;6.918;2023-02-12T09:28:45;9.70;99.90
13802;DHT22;6972;51.518;6.918;2023-02-12T09:31:13;9.40;99.90
13802;DHT22;6972;51.518;6.918;2023-02-12T09:33:39;9.70;99.90
13802;DHT22;6972;51.518;6.918;2023-02-12T09:36:08;9.60;99.90
13802;DHT22;6972;51.518;6.918;2023-02-12T09:43:50;9.70;99.90
13802;DHT22;6972;51.518;6.918;2023-02-12T09:46:31;9.80;99.90
13802;DHT22;6972;51.518;6.918;2023-02-12T09:49:08;9.70;99.90
13802;DHT22;6972;51.518;6.918;2023-02-12T09:51:36;9.80;99.90
13802;DHT22;6972;51.518;6.918;2023-02-12T09:54:13;10.00;99.90
13802;DHT22;6972;51.518;6.918;2023-02-12T09:56:42;10.10;99.90
13802;DHT22;6972;51.518;6.918;2023-02-12T09:59:24;10.10;99.90
13802;DHT22;6972;51.518;6.918;2023-02-12T10:01:53;10.00;99.90
13802;DHT22;6972;51.518;6.918;2023-02-12T10:04:19;10.10;99.90
13802;DHT22;6972;51.518;6.918;2023-02-12T10:06:52;10.10;99.90
13802;DHT22;6972;51.518;6.918;2023-02-12T10:26:20;10.40;99.90
13802;DHT22;6972;51.518;6.918;2023-02-12T10:28:48;10.40;99.90
13802;DHT22;6972;51.518;6.918;2023-02-12T10:31:23;10.60;99.90
13802;DHT22;6972;51.518;6.918;2023-02-12T10:33:54;10.50;99.90
13802;DHT22;6972;51.518;6.918;2023-02-12T10:36:44;10.60;99.90
13802;DHT22;6972;51.518;6.918;2023-02-12T10:44:18;10.80;99.90
13802;DHT22;6972;51.518;6.918;2023-02-12T10:49:14;10.70;99.90
13802;DHT22;6972;51.518;6.918;2023-02-12T10:52:04;10.60;99.90
13802;DHT22;6972;51.518;6.918;2023-02-12T10:57:07;10.60;99.90
13802;DHT22;6972;51.518;6.918;2023-02-12T10:59:32;10.80;99.90
13802;DHT22;6972;51.518;6.918;2023-02-12T11:01:59;10.90;99.90
13802;DHT22;6972;51.518;6.918;2023-02-12T11:04:30;10.80;99.90
13802;DHT22;6972;51.518;6.918;2023-02-12T11:09:43;11.00;99.90
13802;DHT22;6972;51.518;6.918;2023-02-12T11:12:40;10.80;99.90
13802;DHT22;6972;51.518;6.918;2023-02-12T11:15:18;11.00;99.90
13802;DHT22;6972;51.518;6.918;2023-02-12T11:17:54;11.00;99.90
13802;DHT22;6972;51.518;6.918;2023-02-12T11:20:24;11.00;99.90
13802;DHT22;6972;51.518;6.918;2023-02-12T11:22:59;11.10;99.90
13802;DHT22;6972;51.518;6.918;2023-02-12T11:25:29;9.20;99.90
13802;DHT22;6972;51.518;6.918;2023-02-12T11:28:18;11.00;99.90
13802;DHT22;6972;51.518;6.918;2023-02-12T11:30:59;11.10;99.90
13802;DHT22;6972;51.518;6.918;2023-02-12T11:33:36;11.00;99.90
13802;DHT22;6972;51.518;6.918;2023-02-12T11:36:14;11.10;99.90
13802;DHT22;6972;51.518;6.918;2023-02-12T11:41:31;11.10;99.90
13802;DHT22;6972;51.518;6.918;2023-02-12T11:44:25;11.20;99.90
13802;DHT22;6972;51.518;6.918;2023-02-12T11:47:03;11.30;99.90
13802;DHT22;6972;51.518;6.918;2023-02-12T11:49:52;11.10;99.90
13802;DHT22;6972;51.518;6.918;2023-02-12T11:52:24;11.10;99.90
13802;DHT22;6972;51.518;6.918;2023-02-12T11:54:56;11.20;99.90
13802;DHT22;6972;51.518;6.918;2023-02-12T12:00:18;11.10;99.90
13802;DHT22;6972;51.518;6.918;2023-02-12T12:03:03;11.00;99.90
13802;DHT22;6972;51.518;6.918;2023-02-12T12:05:35;11.10;99.90
13802;DHT22;6972;51.518;6.918;2023-02-12T12:08:13;11.10;99.90
13802;DHT22;6972;51.518;6.918;2023-02-12T12:10:48;11.20;99.90
13802;DHT22;6972;51.518;6.918;2023-02-12T12:13:20;11.20;99.90
13802;DHT22;6972;51.518;6.918;2023-02-12T12:15:53;11.20;99.90
13802;DHT22;6972;51.518;6.918;2023-02-12T12:18:58;11.30;99.90
13802;DHT22;6972;51.518;6.918;2023-02-12T12:24:51;11.30;99.90
13802;DHT22;6972;51.518;6.918;2023-02-12T12:33:04;11.00;99.90
13802;DHT22;6972;51.518;6.918;2023-02-12T12:35:58;11.00;99.90
13802;DHT22;6972;51.518;6.918;2023-02-12T12:44:14;11.10;99.90
13802;DHT22;6972;51.518;6.918;2023-02-12T12:58:25;11.50;99.90
13802;DHT22;6972;51.518;6.918;2023-02-12T13:11:15;11.40;99.90
13802;DHT22;6972;51.518;6.918;2023-02-12T13:13:45;11.50;99.90
13802;DHT22;6972;51.518;6.918;2023-02-12T13:19:31;11.30;99.90
13802;DHT22;6972;51.518;6.918;2023-02-12T13:22:13;11.30;99.90
13802;DHT22;6972;51.518;6.918;2023-02-12T13:24:51;11.40;99.90
13802;DHT22;6972;51.518;6.918;2023-02-12T13:27:27;11.30;99.90
13802;DHT22;6972;51.518;6.918;2023-02-12T13:32:53;11.30;99.90
13802;DHT22;6972;51.518;6.918;2023-02-12T13:35:23;11.20;99.90
13802;DHT22;6972;51.518;6.918;2023-02-12T13:37:54;11.30;99.90
13802;DHT22;6972;51.518;6.918;2023-02-12T13:58:58;11.30;99.90
13802;DHT22;6972;51.518;6.918;2023-02-12T14:01:43;11.30;99.90
13802;DHT22;6972;51.518;6.918;2023-02-12T14:06:57;11.10;99.90
13802;DHT22;6972;51.518;6.918;2023-02-12T14:12:04;11.10;99.90
13802;DHT22;6972;51.518;6.918;2023-02-12T14:14:40;11.10;99.90
13802;DHT22;6972;51.518;6.918;2023-02-12T14:35:41;10.80;99.90
13802;DHT22;6972;51.518;6.918;2023-02-12T14:40:49;10.80;99.90
13802;DHT22;6972;51.518;6.918;2023-02-12T14:43:34;10.90;99.90
13802;DHT22;6972;51.518;6.918;2023-02-12T14:53:50;10.80;99.90
13802;DHT22;6972;51.518;6.918;2023-02-12T14:56:20;10.80;99.90
13802;DHT22;6972;51.518;6.918;2023-02-12T14:58:47;10.80;99.90
13802;DHT22;6972;51.518;6.918;2023-02-12T15:01:32;10.70;99.90
13802;DHT22;6972;51.518;6.918;2023-02-12T15:04:15;10.80;99.90
13802;DHT22;6972;51.518;6.918;2023-02-12T15:06:52;10.80;99.90
13802;DHT22;6972;51.518;6.918;2023-02-12T15:09:32;10.70;99.90
13802;DHT22;6972;51.518;6.918;2023-02-12T15:14:30;10.60;99.90
13802;DHT22;6972;51.518;6.918;2023-02-12T15:17:08;10.70;99.90
13802;DHT22;6972;51.518;6.918;2023-02-12T15:19:55;10.60;99.90
13802;DHT22;6972;51.518;6.918;2023-02-12T15:22:30;10.60;99.90
13802;DHT22;6972;51.518;6.918;2023-02-12T15:27:46;10.60;99.90
13802;DHT22;6972;51.518;6.918;2023-02-12T15:30:18;10.60;99.90
13802;DHT22;6972;51.518;6.918;2023-02-12T15:32:45;10.60;99.90
13802;DHT22;6972;51.518;6.918;2023-02-12T15:35:31;10.60;99.90
13802;DHT22;6972;51.518;6.918;2023-02-12T15:37:58;10.50;99.90
13802;DHT22;6972;51.518;6.918;2023-02-12T15:40:26;10.50;99.90
13802;DHT22;6972;51.518;6.918;2023-02-12T15:43:00;10.50;99.90
13802;DHT22;6972;51.518;6.918;2023-02-12T15:45:28;10.60;99.90
13802;DHT22;6972;51.518;6.918;2023-02-12T15:53:13;10.40;99.90
13802;DHT22;6972;51.518;6.918;2023-02-12T15:55:42;10.40;99.90
13802;DHT22;6972;51.518;6.918;2023-02-12T15:58:22;10.40;99.90
13802;DHT22;6972;51.518;6.918;2023-02-12T16:03:21;10.50;99.90
13802;DHT22;6972;51.518;6.918;2023-02-12T16:05:48;10.40;99.90
13802;DHT22;6972;51.518;6.918;2023-02-12T16:08:17;10.40;99.90
13802;DHT22;6972;51.518;6.918;2023-02-12T16:10:45;10.40;99.90
13802;DHT22;6972;51.518;6.918;2023-02-12T16:13:18;10.20;99.90
13802;DHT22;6972;51.518;6.918;2023-02-12T16:18:26;10.40;99.90
13802;DHT22;6972;51.518;6.918;2023-02-12T16:21:09;10.30;99.90
13802;DHT22;6972;51.518;6.918;2023-02-12T16:23:36;10.30;99.90
13802;DHT22;6972;51.518;6.918;2023-02-12T16:26:03;10.30;99.90
13802;DHT22;6972;51.518;6.918;2023-02-12T16:28:29;10.30;99.90
13802;DHT22;6972;51.518;6.918;2023-02-12T16:31:13;10.00;99.90
13802;DHT22;6972;51.518;6.918;2023-02-12T16:43:47;10.20;99.90
13802;DHT22;6972;51.518;6.918;2023-02-12T16:46:13;10.20;99.90
13802;DHT22;6972;51.518;6.918;2023-02-12T16:48:44;10.20;99.90
13802;DHT22;6972;51.518;6.918;2023-02-12T16:56:20;10.20;99.90
13802;DHT22;6972;51.518;6.918;2023-02-12T16:58:48;10.20;99.90
13802;DHT22;6972;51.518;6.918;2023-02-12T17:01:31;10.40;99.90
13802;DHT22;6972;51.518;6.918;2023-02-12T17:04:00;10.50;99.90
13802;DHT22;6972;51.518;6.918;2023-02-12T17:06:29;10.70;99.90
13802;DHT22;6972;51.518;6.918;2023-02-12T17:08:56;10.50;99.90
13802;DHT22;6972;51.518;6.918;2023-02-12T17:11:22;10.50;99.90
13802;DHT22;6972;51.518;6.918;2023-02-12T17:13:50;10.30;99.90
13802;DHT22;6972;51.518;6.918;2023-02-12T17:18:43;10.30;99.90
13802;DHT22;6972;51.518;6.918;2023-02-12T17:21:22;10.20;99.90
13802;DHT22;6972;51.518;6.918;2023-02-12T17:28:41;10.10;99.90
13802;DHT22;6972;51.518;6.918;2023-02-12T17:31:10;10.10;99.90
13802;DHT22;6972;51.518;6.918;2023-02-12T17:36:01;10.10;99.90
13802;DHT22;6972;51.518;6.918;2023-02-12T17:45:45;10.00;99.90
13802;DHT22;6972;51.518;6.918;2023-02-12T17:48:13;10.00;99.90
13802;DHT22;6972;51.518;6.918;2023-02-12T17:50:39;10.00;99.90
13802;DHT22;6972;51.518;6.918;2023-02-12T17:53:05;10.00;99.90
13802;DHT22;6972;51.518;6.918;2023-02-12T18:02:50;10.00;99.90
13802;DHT22;6972;51.518;6.918;2023-02-12T18:10:10;10.00;99.90
13802;DHT22;6972;51.518;6.918;2023-02-12T18:12:36;9.90;99.90
13802;DHT22;6972;51.518;6.918;2023-02-12T18:15:04;9.90;99.90
13802;DHT22;6972;51.518;6.918;2023-02-12T18:17:30;9.90;99.90
13802;DHT22;6972;51.518;6.918;2023-02-12T18:27:15;10.00;99.90
13802;DHT22;6972;51.518;6.918;2023-02-12T18:37:05;9.90;99.90
13802;DHT22;6972;51.518;6.918;2023-02-12T18:39:30;9.90;99.90
13802;DHT22;6972;51.518;6.918;2023-02-12T18:44:22;9.90;99.90
13802;DHT22;6972;51.518;6.918;2023-02-12T18:46:48;9.80;99.90
13802;DHT22;6972;51.518;6.918;2023-02-12T18:51:40;9.90;99.90
13802;DHT22;6972;51.518;6.918;2023-02-12T18:54:10;10.00;99.90
13802;DHT22;6972;51.518;6.918;2023-02-12T18:56:40;10.00;99.90
13802;DHT22;6972;51.518;6.918;2023-02-12T18:59:10;9.90;99.90
13802;DHT22;6972;51.518;6.918;2023-02-12T19:04:05;9.90;99.90
13802;DHT22;6972;51.518;6.918;2023-02-12T19:06:32;9.90;99.90
13802;DHT22;6972;51.518;6.918;2023-02-12T19:09:03;10.00;99.90
13802;DHT22;6972;51.518;6.918;2023-02-12T19:11:30;9.90;99.90
13802;DHT22;6972;51.518;6.918;2023-02-12T19:13:56;9.90;99.90
13802;DHT22;6972;51.518;6.918;2023-02-12T19:16:22;9.90;99.90
13802;DHT22;6972;51.518;6.918;2023-02-12T19:18:50;9.90;99.90
13802;DHT22;6972;51.518;6.918;2023-02-12T19:21:16;9.80;99.90
13802;DHT22;6972;51.518;6.918;2023-02-12T19:23:42;10.10;99.90
13802;DHT22;6972;51.518;6.918;2023-02-12T19:26:10;9.90;99.90
13802;DHT22;6972;51.518;6.918;2023-02-12T19:33:42;9.90;99.90
13802;DHT22;6972;51.518;6.918;2023-02-12T19:36:10;9.90;99.90
13802;DHT22;6972;51.518;6.918;2023-02-12T19:38:37;9.80;99.90
13802;DHT22;6972;51.518;6.918;2023-02-12T19:41:05;9.80;99.90
13802;DHT22;6972;51.518;6.918;2023-02-12T19:43:31;9.90;99.90
13802;DHT22;6972;51.518;6.918;2023-02-12T19:46:01;9.70;99.90
13802;DHT22;6972;51.518;6.918;2023-02-12T19:48:27;9.70;99.90
13802;DHT22;6972;51.518;6.918;2023-02-12T20:20:05;9.70;99.90
13802;DHT22;6972;51.518;6.918;2023-02-12T20:22:31;9.90;99.90
13802;DHT22;6972;51.518;6.918;2023-02-12T20:39:32;9.70;99.90
13802;DHT22;6972;51.518;6.918;2023-02-12T20:46:51;9.50;99.90
13802;DHT22;6972;51.518;6.918;2023-02-12T20:49:18;9.80;99.90
13802;DHT22;6972;51.518;6.918;2023-02-12T20:51:44;9.70;99.90
13802;DHT22;6972;51.518;6.918;2023-02-12T20:54:11;9.60;99.90
13802;DHT22;6972;51.518;6.918;2023-02-12T20:56:37;9.50;99.90
13802;DHT22;6972;51.518;6.918;2023-02-12T20:59:04;9.50;99.90
13802;DHT22;6972;51.518;6.918;2023-02-12T21:01:35;9.60;99.90
13802;DHT22;6972;51.518;6.918;2023-02-12T21:04:07;9.60;99.90
13802;DHT22;6972;51.518;6.918;2023-02-12T21:06:33;9.60;99.90
13802;DHT22;6972;51.518;6.918;2023-02-12T21:08:59;9.50;99.90
13802;DHT22;6972;51.518;6.918;2023-02-12T21:11:26;11.60;99.90
13802;DHT22;6972;51.518;6.918;2023-02-12T21:13:54;9.60;99.90
13802;DHT22;6972;51.518;6.918;2023-02-12T21:16:23;9.60;99.90
13802;DHT22;6972;51.518;6.918;2023-02-12T21:18:51;9.60;99.90
13802;DHT22;6972;51.518;6.918;2023-02-12T21:21:20;9.60;99.90
13802;DHT22;6972;51.518;6.918;2023-02-12T21:26:15;9.50;99.90
13802;DHT22;6972;51.518;6.918;2023-02-12T21:28:41;9.50;99.90
13802;DHT22;6972;51.518;6.918;2023-02-12T21:33:49;9.60;99.90
13802;DHT22;6972;51.518;6.918;2023-02-12T21:36:20;9.50;99.90
13802;DHT22;6972;51.518;6.918;2023-02-12T21:38:48;9.60;99.90
13802;DHT22;6972;51.518;6.918;2023-02-12T21:41:25;9.50;99.90
13802;DHT22;6972;51.518;6.918;2023-02-12T21:43:54;9.50;99.90
13802;DHT22;6972;51.518;6.918;2023-02-12T21:46:20;9.50;99.90
13802;DHT22;6972;51.518;6.918;2023-02-12T21:48:47;9.40;99.90
13802;DHT22;6972;51.518;6.918;2023-02-12T21:51:26;9.50;99.90
13802;DHT22;6972;51.518;6.918;2023-02-12T21:53:58;9.50;99.90
13802;DHT22;6972;51.518;6.918;2023-02-12T22:01:20;9.40;99.90
13802;DHT22;6972;51.518;6.918;2023-02-12T22:03:47;9.40;99.90
13802;DHT22;6972;51.518;6.918;2023-02-12T22:06:14;9.50;99.90
13802;DHT22;6972;51.518;6.918;2023-02-12T22:08:46;9.40;99.90
13802;DHT22;6972;51.518;6.918;2023-02-12T22:11:12;9.60;99.90
13802;DHT22;6972;51.518;6.918;2023-02-12T22:16:16;9.50;99.90
13802;DHT22;6972;51.518;6.918;2023-02-12T22:18:44;9.60;99.90
13802;DHT22;6972;51.518;6.918;2023-02-12T22:21:11;9.50;99.90
13802;DHT22;6972;51.518;6.918;2023-02-12T22:23:38;12.40;99.90
13802;DHT22;6972;51.518;6.918;2023-02-12T22:28:39;9.50;99.90
13802;DHT22;6972;51.518;6.918;2023-02-12T22:31:06;9.50;99.90
13802;DHT22;6972;51.518;6.918;2023-02-12T22:36:02;9.60;99.90
13802;DHT22;6972;51.518;6.918;2023-02-12T22:38:28;9.50;99.90
13802;DHT22;6972;51.518;6.918;2023-02-12T22:50:38;9.50;99.90
13802;DHT22;6972;51.518;6.918;2023-02-12T22:53:04;9.50;99.90
13802;DHT22;6972;51.518;6.918;2023-02-12T22:57:56;9.50;99.90
13802;DHT22;6972;51.518;6.918;2023-02-12T23:05:14;9.40;99.90
13802;DHT22;6972;51.518;6.918;2023-02-12T23:10:06;9.50;99.90
13802;DHT22;6972;51.518;6.918;2023-02-12T23:27:10;9.60;99.90
13802;DHT22;6972;51.518;6.918;2023-02-12T23:56:23;9.50;99.90
